VIR811P EGPH-EGCC
Flight info
| Callsign | VIR811P |
|---|---|
| Flight time | 0h 42m |
| Altitude | 24000 |
| Route | GOSAM P600 FENIK L612 LAKEY |
| Aircraft | A333/H-SDE3GHIJ2J3J5M1RVWXY/LB2D1 |
Departure
| Time | 2026-04-22 16:17 |
|---|---|
| Airport | Edinburgh Airport (EGPH) |
Arrival
| Time | 2026-04-22 17:00 |
|---|---|
| Airport | Manchester Airport (EGCC) |
| Time | Latitude | Longitude | Altitude | Speed | Heading |
|---|---|---|---|---|---|
| 2026-04-22 15:50 | 55.94957 | -3.35999 | 120 ft | 0 kts | 254° |
| 2026-04-22 16:11 | 55.94959 | -3.35988 | 120 ft | 4 kts | 254° |
| 2026-04-22 16:11 | 55.94966 | -3.35942 | 120 ft | 3 kts | 254° |
| 2026-04-22 16:11 | 55.94968 | -3.35900 | 115 ft | 4 kts | 295° |
| 2026-04-22 16:11 | 55.94952 | -3.35864 | 115 ft | 4 kts | 323° |
| 2026-04-22 16:12 | 55.94930 | -3.35837 | 119 ft | 2 kts | 324° |
| 2026-04-22 16:12 | 55.94929 | -3.35835 | 120 ft | 0 kts | 323° |
| 2026-04-22 16:14 | 55.94948 | -3.35850 | 116 ft | 14 kts | 344° |
| 2026-04-22 16:14 | 55.95062 | -3.35897 | 116 ft | 19 kts | 309° |
| 2026-04-22 16:14 | 55.95134 | -3.36227 | 118 ft | 26 kts | 281° |
| 2026-04-22 16:14 | 55.95060 | -3.36500 | 115 ft | 26 kts | 238° |
| 2026-04-22 16:15 | 55.94960 | -3.36796 | 116 ft | 29 kts | 239° |
| 2026-04-22 16:15 | 55.94848 | -3.37126 | 116 ft | 32 kts | 238° |
| 2026-04-22 16:15 | 55.94726 | -3.37481 | 120 ft | 35 kts | 238° |
| 2026-04-22 16:15 | 55.94600 | -3.37861 | 116 ft | 37 kts | 239° |
| 2026-04-22 16:16 | 55.94463 | -3.38261 | 115 ft | 39 kts | 238° |
| 2026-04-22 16:16 | 55.94326 | -3.38668 | 120 ft | 34 kts | 239° |
| 2026-04-22 16:16 | 55.94306 | -3.38887 | 116 ft | 17 kts | 317° |
| 2026-04-22 16:16 | 55.94410 | -3.38955 | 114 ft | 14 kts | 21° |
| 2026-04-22 16:17 | 55.94471 | -3.38810 | 118 ft | 17 kts | 59° |
| 2026-04-22 16:17 | 55.94615 | -3.38381 | 112 ft | 78 kts | 59° |
| 2026-04-22 16:17 | 55.95033 | -3.37143 | 212 ft | 145 kts | 58° |
| 2026-04-22 16:17 | 55.95535 | -3.35640 | 1272 ft | 139 kts | 61° |
| 2026-04-22 16:18 | 55.96075 | -3.34186 | 2294 ft | 148 kts | 52° |
| 2026-04-22 16:18 | 55.96885 | -3.32736 | 2794 ft | 185 kts | 45° |
| 2026-04-22 16:18 | 55.97934 | -3.31071 | 3308 ft | 221 kts | 43° |
| 2026-04-22 16:18 | 55.99188 | -3.29175 | 4020 ft | 245 kts | 38° |
| 2026-04-22 16:19 | 56.00745 | -3.27804 | 5106 ft | 257 kts | 16° |
| 2026-04-22 16:19 | 56.02559 | -3.27783 | 6235 ft | 269 kts | 348° |
| 2026-04-22 16:19 | 56.04214 | -3.29433 | 7345 ft | 280 kts | 316° |
| 2026-04-22 16:19 | 56.05189 | -3.32384 | 8509 ft | 285 kts | 284° |
| 2026-04-22 16:20 | 56.05198 | -3.35911 | 9690 ft | 287 kts | 252° |
| 2026-04-22 16:20 | 56.04261 | -3.39032 | 10860 ft | 288 kts | 231° |
| 2026-04-22 16:20 | 56.02945 | -3.41902 | 11509 ft | 311 kts | 227° |
| 2026-04-22 16:20 | 56.01687 | -3.45256 | 11942 ft | 341 kts | 244° |
| 2026-04-22 16:21 | 56.00936 | -3.49383 | 12708 ft | 356 kts | 252° |
| 2026-04-22 16:21 | 56.00313 | -3.53719 | 13660 ft | 362 kts | 253° |
| 2026-04-22 16:21 | 55.99703 | -3.58106 | 14654 ft | 367 kts | 253° |
| 2026-04-22 16:21 | 55.99077 | -3.62558 | 15613 ft | 371 kts | 253° |
| 2026-04-22 16:22 | 55.97793 | -3.71589 | 17441 ft | 379 kts | 253° |
| 2026-04-22 16:22 | 55.97135 | -3.76172 | 18310 ft | 383 kts | 253° |
| 2026-04-22 16:22 | 55.96474 | -3.80753 | 19162 ft | 386 kts | 253° |
| 2026-04-22 16:23 | 55.95106 | -3.90045 | 20880 ft | 388 kts | 252° |
| 2026-04-22 16:23 | 55.94088 | -3.94499 | 21732 ft | 388 kts | 242° |
| 2026-04-22 16:23 | 55.92544 | -3.98442 | 22503 ft | 391 kts | 229° |
| 2026-04-22 16:24 | 55.90586 | -4.01847 | 23185 ft | 396 kts | 224° |
| 2026-04-22 16:24 | 55.86396 | -4.08364 | 24302 ft | 402 kts | 224° |
| 2026-04-22 16:24 | 55.84270 | -4.11654 | 24465 ft | 411 kts | 224° |
| 2026-04-22 16:25 | 55.82080 | -4.15065 | 24469 ft | 424 kts | 224° |
| 2026-04-22 16:25 | 55.77500 | -4.21853 | 24476 ft | 430 kts | 220° |
| 2026-04-22 16:25 | 55.74955 | -4.24674 | 24476 ft | 435 kts | 208° |
| 2026-04-22 16:26 | 55.72068 | -4.26176 | 24477 ft | 443 kts | 191° |
| 2026-04-22 16:26 | 55.68967 | -4.26143 | 24468 ft | 451 kts | 175° |
| 2026-04-22 16:26 | 55.65923 | -4.24578 | 24468 ft | 458 kts | 161° |
| 2026-04-22 16:26 | 55.63049 | -4.22085 | 24463 ft | 462 kts | 154° |
| 2026-04-22 16:27 | 55.60278 | -4.19185 | 24458 ft | 463 kts | 152° |
| 2026-04-22 16:27 | 55.57542 | -4.16162 | 24459 ft | 464 kts | 151° |
| 2026-04-22 16:27 | 55.54795 | -4.13157 | 24451 ft | 463 kts | 152° |
| 2026-04-22 16:27 | 55.52031 | -4.10239 | 24449 ft | 463 kts | 153° |
| 2026-04-22 16:28 | 55.49250 | -4.07402 | 24451 ft | 462 kts | 154° |
| 2026-04-22 16:28 | 55.46443 | -4.04619 | 24444 ft | 462 kts | 154° |
| 2026-04-22 16:28 | 55.43626 | -4.01877 | 24446 ft | 462 kts | 154° |
| 2026-04-22 16:28 | 55.40801 | -3.99151 | 24444 ft | 462 kts | 154° |
| 2026-04-22 16:29 | 55.37971 | -3.96429 | 24437 ft | 462 kts | 154° |
| 2026-04-22 16:29 | 55.35164 | -3.93731 | 24436 ft | 461 kts | 154° |
| 2026-04-22 16:29 | 55.32385 | -3.91061 | 24444 ft | 461 kts | 154° |
| 2026-04-22 16:29 | 55.29565 | -3.88352 | 24444 ft | 461 kts | 154° |
| 2026-04-22 16:30 | 55.27670 | -3.86532 | 24436 ft | 460 kts | 154° |
| 2026-04-22 16:30 | 55.23941 | -3.82954 | 24436 ft | 460 kts | 154° |
| 2026-04-22 16:30 | 55.21136 | -3.80265 | 24436 ft | 460 kts | 154° |
| 2026-04-22 16:30 | 55.18326 | -3.77576 | 24442 ft | 460 kts | 154° |
| 2026-04-22 16:31 | 55.15517 | -3.74892 | 24444 ft | 459 kts | 154° |
| 2026-04-22 16:31 | 55.12712 | -3.72218 | 24442 ft | 459 kts | 154° |
| 2026-04-22 16:31 | 55.09915 | -3.69556 | 24436 ft | 459 kts | 154° |
| 2026-04-22 16:31 | 55.07105 | -3.66887 | 24436 ft | 459 kts | 154° |
| 2026-04-22 16:32 | 55.04295 | -3.64222 | 24442 ft | 459 kts | 154° |
| 2026-04-22 16:32 | 55.01489 | -3.61564 | 24432 ft | 458 kts | 154° |
| 2026-04-22 16:32 | 54.98690 | -3.58917 | 24424 ft | 458 kts | 154° |
| 2026-04-22 16:32 | 54.95908 | -3.56289 | 24421 ft | 458 kts | 154° |
| 2026-04-22 16:33 | 54.93102 | -3.53642 | 24422 ft | 458 kts | 154° |
| 2026-04-22 16:33 | 54.90289 | -3.50994 | 24422 ft | 459 kts | 154° |
| 2026-04-22 16:33 | 54.87484 | -3.48360 | 24422 ft | 458 kts | 154° |
| 2026-04-22 16:33 | 54.84671 | -3.45722 | 24422 ft | 458 kts | 154° |
| 2026-04-22 16:34 | 54.81866 | -3.43097 | 24422 ft | 458 kts | 154° |
| 2026-04-22 16:34 | 54.79049 | -3.40464 | 24422 ft | 458 kts | 154° |
| 2026-04-22 16:34 | 54.76244 | -3.37847 | 24423 ft | 458 kts | 154° |
| 2026-04-22 16:34 | 54.73443 | -3.35236 | 24422 ft | 458 kts | 154° |
| 2026-04-22 16:35 | 54.70599 | -3.32735 | 24422 ft | 457 kts | 156° |
| 2026-04-22 16:35 | 54.67739 | -3.30473 | 24430 ft | 457 kts | 158° |
| 2026-04-22 16:35 | 54.64815 | -3.28295 | 24431 ft | 457 kts | 159° |
| 2026-04-22 16:35 | 54.61881 | -3.26159 | 24431 ft | 457 kts | 159° |
| 2026-04-22 16:36 | 54.58953 | -3.24037 | 24425 ft | 457 kts | 159° |
| 2026-04-22 16:36 | 54.56027 | -3.21901 | 24421 ft | 457 kts | 159° |
| 2026-04-22 16:36 | 54.53102 | -3.19747 | 24420 ft | 458 kts | 159° |
| 2026-04-22 16:36 | 54.51162 | -3.18309 | 24422 ft | 458 kts | 159° |
| 2026-04-22 16:37 | 54.48222 | -3.16123 | 24422 ft | 458 kts | 159° |
| 2026-04-22 16:37 | 54.44348 | -3.13240 | 24411 ft | 458 kts | 159° |
| 2026-04-22 16:37 | 54.42371 | -3.11772 | 24413 ft | 459 kts | 159° |
| 2026-04-22 16:37 | 54.38496 | -3.08897 | 24412 ft | 459 kts | 159° |
| 2026-04-22 16:38 | 54.36513 | -3.07428 | 24412 ft | 459 kts | 159° |
| 2026-04-22 16:38 | 54.33583 | -3.05263 | 24407 ft | 459 kts | 159° |
| 2026-04-22 16:38 | 54.30659 | -3.03107 | 24048 ft | 454 kts | 159° |
| 2026-04-22 16:38 | 54.27816 | -3.01012 | 23436 ft | 444 kts | 158° |
| 2026-04-22 16:39 | 54.25033 | -2.98948 | 23058 ft | 430 kts | 157° |
| 2026-04-22 16:39 | 54.22424 | -2.96496 | 22464 ft | 423 kts | 149° |
| 2026-04-22 16:39 | 54.19969 | -2.93787 | 21827 ft | 417 kts | 148° |
| 2026-04-22 16:39 | 54.17572 | -2.91074 | 21198 ft | 410 kts | 148° |
| 2026-04-22 16:40 | 54.15215 | -2.88407 | 20575 ft | 404 kts | 148° |
| 2026-04-22 16:40 | 54.12892 | -2.85789 | 19917 ft | 397 kts | 148° |
| 2026-04-22 16:40 | 54.08366 | -2.80712 | 18585 ft | 384 kts | 148° |
| 2026-04-22 16:41 | 54.06127 | -2.78209 | 17609 ft | 386 kts | 148° |
| 2026-04-22 16:41 | 54.03892 | -2.75718 | 16774 ft | 383 kts | 148° |
| 2026-04-22 16:41 | 54.01669 | -2.73241 | 16003 ft | 379 kts | 148° |
| 2026-04-22 16:41 | 53.99477 | -2.70805 | 15336 ft | 373 kts | 148° |
| 2026-04-22 16:42 | 53.97314 | -2.68403 | 14496 ft | 369 kts | 147° |
| 2026-04-22 16:42 | 53.95178 | -2.66034 | 13691 ft | 365 kts | 147° |
| 2026-04-22 16:42 | 53.93063 | -2.63690 | 12895 ft | 360 kts | 147° |
| 2026-04-22 16:42 | 53.90984 | -2.61388 | 12096 ft | 354 kts | 147° |
| 2026-04-22 16:43 | 53.88934 | -2.59124 | 11306 ft | 350 kts | 147° |
| 2026-04-22 16:43 | 53.86899 | -2.56879 | 10694 ft | 347 kts | 147° |
| 2026-04-22 16:43 | 53.84879 | -2.54652 | 10435 ft | 346 kts | 146° |
| 2026-04-22 16:43 | 53.82856 | -2.52425 | 10377 ft | 346 kts | 146° |
| 2026-04-22 16:44 | 53.80838 | -2.50205 | 10380 ft | 346 kts | 146° |
| 2026-04-22 16:44 | 53.78764 | -2.48267 | 10175 ft | 343 kts | 158° |
| 2026-04-22 16:44 | 53.76440 | -2.47511 | 9391 ft | 343 kts | 178° |
| 2026-04-22 16:44 | 53.74089 | -2.48263 | 8734 ft | 348 kts | 198° |
| 2026-04-22 16:45 | 53.71889 | -2.50023 | 8432 ft | 351 kts | 204° |
| 2026-04-22 16:45 | 53.69753 | -2.51930 | 8378 ft | 335 kts | 205° |
| 2026-04-22 16:45 | 53.67782 | -2.53724 | 8397 ft | 309 kts | 205° |
| 2026-04-22 16:45 | 53.65966 | -2.55402 | 8387 ft | 288 kts | 205° |
| 2026-04-22 16:46 | 53.64254 | -2.56993 | 8380 ft | 278 kts | 205° |
| 2026-04-22 16:46 | 53.62559 | -2.58571 | 8374 ft | 278 kts | 205° |
| 2026-04-22 16:46 | 53.60868 | -2.60145 | 8377 ft | 279 kts | 205° |
| 2026-04-22 16:46 | 53.59167 | -2.61725 | 8375 ft | 278 kts | 205° |
| 2026-04-22 16:47 | 53.57467 | -2.63301 | 8379 ft | 279 kts | 205° |
| 2026-04-22 16:47 | 53.55770 | -2.64880 | 8187 ft | 278 kts | 205° |
| 2026-04-22 16:47 | 53.54096 | -2.66447 | 7743 ft | 277 kts | 205° |
| 2026-04-22 16:47 | 53.52422 | -2.68017 | 7300 ft | 276 kts | 205° |
| 2026-04-22 16:48 | 53.50750 | -2.69593 | 6829 ft | 274 kts | 205° |
| 2026-04-22 16:48 | 53.49086 | -2.71167 | 6390 ft | 273 kts | 205° |
| 2026-04-22 16:48 | 53.47437 | -2.72726 | 5943 ft | 271 kts | 205° |
| 2026-04-22 16:48 | 53.45816 | -2.74268 | 5652 ft | 264 kts | 205° |
| 2026-04-22 16:49 | 53.44261 | -2.75760 | 5465 ft | 248 kts | 205° |
| 2026-04-22 16:49 | 53.42801 | -2.77180 | 5074 ft | 238 kts | 205° |
| 2026-04-22 16:49 | 53.41395 | -2.78549 | 4555 ft | 237 kts | 205° |
| 2026-04-22 16:49 | 53.39973 | -2.79932 | 4136 ft | 236 kts | 205° |
| 2026-04-22 16:50 | 53.38552 | -2.81298 | 3992 ft | 237 kts | 205° |
| 2026-04-22 16:50 | 53.37115 | -2.82672 | 3995 ft | 238 kts | 205° |
| 2026-04-22 16:50 | 53.35682 | -2.84056 | 3998 ft | 237 kts | 205° |
| 2026-04-22 16:50 | 53.34183 | -2.85080 | 3993 ft | 228 kts | 182° |
| 2026-04-22 16:51 | 53.32672 | -2.84733 | 3996 ft | 216 kts | 150° |
| 2026-04-22 16:51 | 53.31438 | -2.83366 | 3994 ft | 212 kts | 137° |
| 2026-04-22 16:51 | 53.30320 | -2.81789 | 3996 ft | 212 kts | 136° |
| 2026-04-22 16:51 | 53.29201 | -2.80178 | 4005 ft | 212 kts | 136° |
| 2026-04-22 16:52 | 53.28080 | -2.78564 | 4004 ft | 212 kts | 135° |
| 2026-04-22 16:52 | 53.26963 | -2.76954 | 3981 ft | 212 kts | 136° |
| 2026-04-22 16:52 | 53.25845 | -2.75348 | 3989 ft | 212 kts | 136° |
| 2026-04-22 16:52 | 53.24721 | -2.73726 | 3986 ft | 213 kts | 136° |
| 2026-04-22 16:53 | 53.23608 | -2.72120 | 3780 ft | 215 kts | 136° |
| 2026-04-22 16:53 | 53.22484 | -2.70501 | 3474 ft | 213 kts | 136° |
| 2026-04-22 16:53 | 53.21428 | -2.68798 | 3208 ft | 208 kts | 121° |
| 2026-04-22 16:53 | 53.21028 | -2.66589 | 3058 ft | 196 kts | 90° |
| 2026-04-22 16:54 | 53.21183 | -2.64390 | 2995 ft | 185 kts | 81° |
| 2026-04-22 16:54 | 53.21422 | -2.62349 | 2986 ft | 172 kts | 80° |
| 2026-04-22 16:54 | 53.21654 | -2.60452 | 3016 ft | 164 kts | 80° |
| 2026-04-22 16:54 | 53.21884 | -2.58606 | 3000 ft | 163 kts | 79° |
| 2026-04-22 16:55 | 53.22120 | -2.56744 | 2990 ft | 164 kts | 79° |
| 2026-04-22 16:55 | 53.22352 | -2.54895 | 2984 ft | 166 kts | 80° |
| 2026-04-22 16:55 | 53.22688 | -2.53052 | 2989 ft | 167 kts | 68° |
| 2026-04-22 16:55 | 53.23292 | -2.51384 | 2986 ft | 169 kts | 58° |
| 2026-04-22 16:56 | 53.23994 | -2.49896 | 2988 ft | 156 kts | 56° |
| 2026-04-22 16:56 | 53.24664 | -2.48528 | 2854 ft | 149 kts | 55° |
| 2026-04-22 16:56 | 53.25319 | -2.47183 | 2644 ft | 150 kts | 55° |
| 2026-04-22 16:56 | 53.25980 | -2.45824 | 2420 ft | 150 kts | 55° |
| 2026-04-22 16:57 | 53.26640 | -2.44474 | 2214 ft | 150 kts | 54° |
| 2026-04-22 16:57 | 53.27300 | -2.43127 | 2041 ft | 150 kts | 54° |
| 2026-04-22 16:57 | 53.27956 | -2.41785 | 1820 ft | 149 kts | 54° |
| 2026-04-22 16:57 | 53.28614 | -2.40436 | 1627 ft | 150 kts | 53° |
| 2026-04-22 16:58 | 53.29047 | -2.39547 | 1479 ft | 149 kts | 53° |
| 2026-04-22 16:58 | 53.29917 | -2.37765 | 1232 ft | 149 kts | 53° |
| 2026-04-22 16:58 | 53.30572 | -2.36422 | 1031 ft | 150 kts | 53° |
| 2026-04-22 16:58 | 53.31222 | -2.35089 | 824 ft | 143 kts | 53° |
| 2026-04-22 16:59 | 53.31817 | -2.33870 | 660 ft | 127 kts | 53° |
| 2026-04-22 16:59 | 53.32351 | -2.32777 | 484 ft | 114 kts | 52° |
| 2026-04-22 16:59 | 53.32836 | -2.31801 | 361 ft | 104 kts | 50° |
| 2026-04-22 16:59 | 53.33293 | -2.30871 | 249 ft | 106 kts | 51° |
| 2026-04-22 17:00 | 53.33704 | -2.30018 | 236 ft | 72 kts | 51° |
| 2026-04-22 17:00 | 53.34104 | -2.29196 | 234 ft | 38 kts | 51° |
| 2026-04-22 17:00 | 53.34265 | -2.28861 | 233 ft | 36 kts | 51° |
| 2026-04-22 17:01 | 53.34446 | -2.28580 | 232 ft | 34 kts | 31° |
| 2026-04-22 17:01 | 53.34658 | -2.28437 | 237 ft | 26 kts | 23° |
| 2026-04-22 17:01 | 53.34780 | -2.28252 | 236 ft | 23 kts | 49° |
| 2026-04-22 17:01 | 53.34889 | -2.28035 | 237 ft | 27 kts | 51° |
| 2026-04-22 17:02 | 53.35011 | -2.27784 | 235 ft | 29 kts | 51° |
| 2026-04-22 17:02 | 53.35140 | -2.27516 | 238 ft | 30 kts | 51° |
| 2026-04-22 17:02 | 53.35266 | -2.27254 | 243 ft | 26 kts | 49° |
| 2026-04-22 17:02 | 53.35335 | -2.27192 | 248 ft | 2 kts | 7° |
| 2026-04-22 17:03 | 53.35336 | -2.27192 | 248 ft | 0 kts | 6° |
| 2026-04-22 17:04 | 53.35358 | -2.27195 | 249 ft | 12 kts | 351° |
| 2026-04-22 17:04 | 53.35444 | -2.27281 | 251 ft | 16 kts | 320° |
| 2026-04-22 17:05 | 53.35559 | -2.27439 | 250 ft | 24 kts | 320° |
| 2026-04-22 17:05 | 53.35670 | -2.27589 | 250 ft | 13 kts | 323° |
| 2026-04-22 17:05 | 53.35681 | -2.27601 | 251 ft | 0 kts | 328° |
| 2026-04-22 17:06 | 53.35708 | -2.27623 | 251 ft | 13 kts | 336° |
| 2026-04-22 17:06 | 53.35817 | -2.27715 | 256 ft | 19 kts | 338° |
| 2026-04-22 17:07 | 53.35946 | -2.27725 | 259 ft | 19 kts | 358° |
| 2026-04-22 17:07 | 53.36055 | -2.27842 | 259 ft | 20 kts | 322° |
| 2026-04-22 17:07 | 53.36175 | -2.28001 | 259 ft | 24 kts | 319° |
| 2026-04-22 17:07 | 53.36301 | -2.28212 | 259 ft | 27 kts | 314° |
| 2026-04-22 17:08 | 53.36407 | -2.28428 | 259 ft | 21 kts | 293° |
| 2026-04-22 17:08 | 53.36508 | -2.28634 | 259 ft | 25 kts | 315° |
| 2026-04-22 17:08 | 53.36612 | -2.28860 | 259 ft | 21 kts | 312° |
| 2026-04-22 17:08 | 53.36716 | -2.29033 | 259 ft | 21 kts | 315° |
| 2026-04-22 17:09 | 53.36798 | -2.29062 | 259 ft | 5 kts | 36° |
| 2026-04-22 17:09 | 53.36814 | -2.29043 | 259 ft | 4 kts | 38° |
| 2026-04-22 17:09 | 53.36822 | -2.29019 | 259 ft | 2 kts | 75° |
| 2026-04-22 17:09 | 53.36805 | -2.28980 | 259 ft | 6 kts | 132° |
| 2026-04-22 17:10 | 53.36779 | -2.28935 | 259 ft | 3 kts | 134° |
| 2026-04-22 17:10 | 53.36773 | -2.28924 | 259 ft | 0 kts | 134° |